Weather at Courela do Outeiro Private Airstrip

Public forecast

Using degrees Celsius for public forecast. Weather courtesy of forecast.io.

Closest aviation weather report (METAR) to Courela do Outeiro Private Airstrip

Closest report is Beja Airport / Airbase, 33.9 nm (62.8 km) NW.

2024/07/25 09:04 (retrieved 14 minutes ago)

LPBJ 250904Z 30009KT 7000 SCT005 BKN013 19/17 Q1014

Closest aviation forecast (TAF) to Courela do Outeiro Private Airstrip

Closest forecast is Beja Airport / Airbase, 33.9 nm (62.8 km) NW.

2024/07/25 06:18 (retrieved 3 hours ago)

TAF LPBJ 250508Z 2506/2606 27008KT 4000 BCFG BKN005 PROB30 2506/2508 0800 FG BKN002 BECMG 2507/2510 9999 NSW SCT010 BECMG 2511/2514 33010KT CAVOK BECMG 2523/2601 30005KT